sensor_id;sensor_type;location;lat;lon;timestamp;P1;durP1;ratioP1;P2;durP2;ratioP2
49464;SDS011;35358;49.342;8.802;2022-08-25T00:01:13;6.15;;;2.22;;
49464;SDS011;35358;49.342;8.802;2022-08-25T00:03:44;6.22;;;2.25;;
49464;SDS011;35358;49.342;8.802;2022-08-25T00:06:12;3.22;;;2.60;;
49464;SDS011;35358;49.342;8.802;2022-08-25T00:08:41;4.88;;;2.35;;
49464;SDS011;35358;49.342;8.802;2022-08-25T00:11:12;4.72;;;2.72;;
49464;SDS011;35358;49.342;8.802;2022-08-25T00:13:41;4.18;;;2.30;;
49464;SDS011;35358;49.342;8.802;2022-08-25T00:16:14;3.00;;;2.53;;
49464;SDS011;35358;49.342;8.802;2022-08-25T00:18:44;5.32;;;2.55;;
49464;SDS011;35358;49.342;8.802;2022-08-25T00:21:12;2.72;;;1.95;;
49464;SDS011;35358;49.342;8.802;2022-08-25T00:23:39;3.45;;;2.13;;
49464;SDS011;35358;49.342;8.802;2022-08-25T00:26:08;5.38;;;2.28;;
49464;SDS011;35358;49.342;8.802;2022-08-25T00:28:34;2.90;;;2.55;;
49464;SDS011;35358;49.342;8.802;2022-08-25T00:31:01;7.28;;;2.60;;
49464;SDS011;35358;49.342;8.802;2022-08-25T00:33:27;4.18;;;2.55;;
49464;SDS011;35358;49.342;8.802;2022-08-25T00:35:55;3.13;;;2.08;;
49464;SDS011;35358;49.342;8.802;2022-08-25T00:38:23;3.50;;;2.38;;
49464;SDS011;35358;49.342;8.802;2022-08-25T00:40:50;3.85;;;2.65;;
49464;SDS011;35358;49.342;8.802;2022-08-25T00:43:50;3.90;;;2.60;;
49464;SDS011;35358;49.342;8.802;2022-08-25T00:46:27;2.53;;;2.13;;
49464;SDS011;35358;49.342;8.802;2022-08-25T00:49:18;4.47;;;2.50;;
49464;SDS011;35358;49.342;8.802;2022-08-25T00:51:52;3.38;;;2.53;;
49464;SDS011;35358;49.342;8.802;2022-08-25T00:54:26;3.55;;;2.30;;
49464;SDS011;35358;49.342;8.802;2022-08-25T00:56:55;2.30;;;2.10;;
49464;SDS011;35358;49.342;8.802;2022-08-25T00:59:23;3.17;;;2.35;;
49464;SDS011;35358;49.342;8.802;2022-08-25T01:01:50;4.78;;;2.35;;
49464;SDS011;35358;49.342;8.802;2022-08-25T01:04:18;3.53;;;2.47;;
49464;SDS011;35358;49.342;8.802;2022-08-25T01:06:44;3.85;;;2.42;;
49464;SDS011;35358;49.342;8.802;2022-08-25T01:09:12;2.83;;;2.50;;
49464;SDS011;35358;49.342;8.802;2022-08-25T01:11:41;3.20;;;2.13;;
49464;SDS011;35358;49.342;8.802;2022-08-25T01:14:09;3.33;;;2.40;;
49464;SDS011;35358;49.342;8.802;2022-08-25T01:16:39;3.80;;;3.17;;
49464;SDS011;35358;49.342;8.802;2022-08-25T01:19:08;4.28;;;2.58;;
49464;SDS011;35358;49.342;8.802;2022-08-25T01:21:41;2.38;;;2.17;;
49464;SDS011;35358;49.342;8.802;2022-08-25T01:24:09;3.05;;;2.75;;
49464;SDS011;35358;49.342;8.802;2022-08-25T01:30:00;2.75;;;2.53;;
49464;SDS011;35358;49.342;8.802;2022-08-25T01:32:26;5.25;;;2.88;;
49464;SDS011;35358;49.342;8.802;2022-08-25T01:38:16;4.72;;;3.15;;
49464;SDS011;35358;49.342;8.802;2022-08-25T01:40:44;3.85;;;3.13;;
49464;SDS011;35358;49.342;8.802;2022-08-25T01:45:40;3.47;;;2.63;;
49464;SDS011;35358;49.342;8.802;2022-08-25T01:48:08;2.58;;;2.30;;
49464;SDS011;35358;49.342;8.802;2022-08-25T01:50:38;3.05;;;2.70;;
49464;SDS011;35358;49.342;8.802;2022-08-25T01:55:48;3.60;;;3.00;;
49464;SDS011;35358;49.342;8.802;2022-08-25T01:58:38;5.13;;;2.88;;
49464;SDS011;35358;49.342;8.802;2022-08-25T02:01:10;4.90;;;2.80;;
49464;SDS011;35358;49.342;8.802;2022-08-25T02:03:45;3.88;;;2.88;;
49464;SDS011;35358;49.342;8.802;2022-08-25T02:06:15;3.03;;;2.72;;
49464;SDS011;35358;49.342;8.802;2022-08-25T02:08:43;3.15;;;2.85;;
49464;SDS011;35358;49.342;8.802;2022-08-25T02:11:10;3.35;;;3.05;;
49464;SDS011;35358;49.342;8.802;2022-08-25T02:13:38;6.38;;;2.70;;
49464;SDS011;35358;49.342;8.802;2022-08-25T02:16:05;5.35;;;2.95;;
49464;SDS011;35358;49.342;8.802;2022-08-25T02:18:34;2.90;;;2.63;;
49464;SDS011;35358;49.342;8.802;2022-08-25T02:21:00;3.88;;;2.78;;
49464;SDS011;35358;49.342;8.802;2022-08-25T02:23:28;3.40;;;2.70;;
49464;SDS011;35358;49.342;8.802;2022-08-25T02:25:58;3.65;;;2.95;;
49464;SDS011;35358;49.342;8.802;2022-08-25T02:28:24;3.58;;;2.85;;
49464;SDS011;35358;49.342;8.802;2022-08-25T02:30:52;4.68;;;3.22;;
49464;SDS011;35358;49.342;8.802;2022-08-25T02:33:21;3.17;;;2.72;;
49464;SDS011;35358;49.342;8.802;2022-08-25T02:35:46;5.30;;;3.20;;
49464;SDS011;35358;49.342;8.802;2022-08-25T02:38:12;5.72;;;3.00;;
49464;SDS011;35358;49.342;8.802;2022-08-25T02:40:38;4.03;;;3.40;;
49464;SDS011;35358;49.342;8.802;2022-08-25T02:43:04;4.53;;;3.40;;
49464;SDS011;35358;49.342;8.802;2022-08-25T02:45:32;3.38;;;2.60;;
49464;SDS011;35358;49.342;8.802;2022-08-25T02:48:00;3.20;;;2.90;;
49464;SDS011;35358;49.342;8.802;2022-08-25T02:50:27;3.85;;;3.15;;
49464;SDS011;35358;49.342;8.802;2022-08-25T02:52:53;6.90;;;3.47;;
49464;SDS011;35358;49.342;8.802;2022-08-25T02:55:21;6.43;;;3.40;;
49464;SDS011;35358;49.342;8.802;2022-08-25T02:57:47;3.55;;;3.25;;
49464;SDS011;35358;49.342;8.802;2022-08-25T03:00:16;3.53;;;3.17;;
49464;SDS011;35358;49.342;8.802;2022-08-25T03:02:42;5.78;;;3.03;;
49464;SDS011;35358;49.342;8.802;2022-08-25T03:05:13;3.42;;;3.15;;
49464;SDS011;35358;49.342;8.802;2022-08-25T03:07:40;4.55;;;3.25;;
49464;SDS011;35358;49.342;8.802;2022-08-25T03:10:10;3.50;;;3.20;;
49464;SDS011;35358;49.342;8.802;2022-08-25T03:12:40;4.88;;;3.63;;
49464;SDS011;35358;49.342;8.802;2022-08-25T03:15:09;5.17;;;3.60;;
49464;SDS011;35358;49.342;8.802;2022-08-25T03:17:40;3.88;;;3.47;;
49464;SDS011;35358;49.342;8.802;2022-08-25T03:20:09;5.77;;;3.67;;
49464;SDS011;35358;49.342;8.802;2022-08-25T03:22:35;6.80;;;4.20;;
49464;SDS011;35358;49.342;8.802;2022-08-25T03:25:01;5.35;;;3.85;;
49464;SDS011;35358;49.342;8.802;2022-08-25T03:27:46;4.72;;;3.75;;
49464;SDS011;35358;49.342;8.802;2022-08-25T03:30:14;4.47;;;3.58;;
49464;SDS011;35358;49.342;8.802;2022-08-25T03:32:42;4.72;;;3.58;;
49464;SDS011;35358;49.342;8.802;2022-08-25T03:35:10;4.10;;;3.58;;
49464;SDS011;35358;49.342;8.802;2022-08-25T03:37:36;4.63;;;3.70;;
49464;SDS011;35358;49.342;8.802;2022-08-25T03:40:06;5.25;;;4.32;;
49464;SDS011;35358;49.342;8.802;2022-08-25T03:42:40;4.15;;;3.58;;
49464;SDS011;35358;49.342;8.802;2022-08-25T03:45:09;5.95;;;3.60;;
49464;SDS011;35358;49.342;8.802;2022-08-25T03:47:41;5.53;;;3.67;;
49464;SDS011;35358;49.342;8.802;2022-08-25T03:50:13;4.38;;;3.97;;
49464;SDS011;35358;49.342;8.802;2022-08-25T03:52:40;5.15;;;4.20;;
49464;SDS011;35358;49.342;8.802;2022-08-25T03:55:09;4.30;;;3.90;;
49464;SDS011;35358;49.342;8.802;2022-08-25T03:57:39;5.22;;;4.47;;
49464;SDS011;35358;49.342;8.802;2022-08-25T04:00:08;6.15;;;5.13;;
49464;SDS011;35358;49.342;8.802;2022-08-25T04:02:36;5.63;;;5.03;;
49464;SDS011;35358;49.342;8.802;2022-08-25T04:05:02;9.45;;;5.03;;
49464;SDS011;35358;49.342;8.802;2022-08-25T04:07:28;6.63;;;5.40;;
49464;SDS011;35358;49.342;8.802;2022-08-25T04:09:53;5.43;;;3.83;;
49464;SDS011;35358;49.342;8.802;2022-08-25T04:12:20;4.88;;;4.10;;
49464;SDS011;35358;49.342;8.802;2022-08-25T04:14:49;4.53;;;3.72;;
49464;SDS011;35358;49.342;8.802;2022-08-25T04:17:17;4.63;;;3.47;;
49464;SDS011;35358;49.342;8.802;2022-08-25T04:19:43;6.40;;;3.83;;
49464;SDS011;35358;49.342;8.802;2022-08-25T04:22:08;3.90;;;3.60;;
49464;SDS011;35358;49.342;8.802;2022-08-25T04:24:36;7.50;;;4.15;;
49464;SDS011;35358;49.342;8.802;2022-08-25T04:27:02;4.88;;;3.45;;
49464;SDS011;35358;49.342;8.802;2022-08-25T04:29:30;5.45;;;3.70;;
49464;SDS011;35358;49.342;8.802;2022-08-25T04:31:58;6.43;;;4.55;;
49464;SDS011;35358;49.342;8.802;2022-08-25T04:34:24;5.93;;;3.95;;
49464;SDS011;35358;49.342;8.802;2022-08-25T04:36:51;4.82;;;3.90;;
49464;SDS011;35358;49.342;8.802;2022-08-25T04:39:19;4.85;;;4.30;;
49464;SDS011;35358;49.342;8.802;2022-08-25T04:41:49;7.18;;;4.38;;
49464;SDS011;35358;49.342;8.802;2022-08-25T04:44:17;5.28;;;4.78;;
49464;SDS011;35358;49.342;8.802;2022-08-25T04:46:43;5.75;;;4.68;;
49464;SDS011;35358;49.342;8.802;2022-08-25T04:49:09;5.72;;;4.63;;
49464;SDS011;35358;49.342;8.802;2022-08-25T04:51:37;5.97;;;4.60;;
49464;SDS011;35358;49.342;8.802;2022-08-25T04:54:06;6.70;;;4.78;;
49464;SDS011;35358;49.342;8.802;2022-08-25T04:56:33;8.47;;;4.27;;
49464;SDS011;35358;49.342;8.802;2022-08-25T04:59:04;5.53;;;4.25;;
49464;SDS011;35358;49.342;8.802;2022-08-25T05:01:33;5.32;;;4.57;;
49464;SDS011;35358;49.342;8.802;2022-08-25T05:04:00;9.07;;;5.07;;
49464;SDS011;35358;49.342;8.802;2022-08-25T05:06:28;7.28;;;4.95;;
49464;SDS011;35358;49.342;8.802;2022-08-25T05:08:59;7.03;;;4.55;;
49464;SDS011;35358;49.342;8.802;2022-08-25T05:11:28;7.32;;;4.68;;
49464;SDS011;35358;49.342;8.802;2022-08-25T05:13:57;6.90;;;4.32;;
49464;SDS011;35358;49.342;8.802;2022-08-25T05:16:25;8.88;;;5.10;;
49464;SDS011;35358;49.342;8.802;2022-08-25T05:18:52;7.65;;;5.57;;
49464;SDS011;35358;49.342;8.802;2022-08-25T05:21:20;5.18;;;4.57;;
49464;SDS011;35358;49.342;8.802;2022-08-25T05:23:47;5.78;;;4.90;;
49464;SDS011;35358;49.342;8.802;2022-08-25T05:26:16;5.70;;;4.68;;
49464;SDS011;35358;49.342;8.802;2022-08-25T05:28:47;10.75;;;5.53;;
49464;SDS011;35358;49.342;8.802;2022-08-25T05:31:17;6.65;;;4.90;;
49464;SDS011;35358;49.342;8.802;2022-08-25T05:33:46;8.27;;;5.82;;
49464;SDS011;35358;49.342;8.802;2022-08-25T05:36:12;8.93;;;5.60;;
49464;SDS011;35358;49.342;8.802;2022-08-25T05:38:39;5.57;;;4.50;;
49464;SDS011;35358;49.342;8.802;2022-08-25T05:41:09;6.45;;;5.15;;
49464;SDS011;35358;49.342;8.802;2022-08-25T05:43:40;5.30;;;4.68;;
49464;SDS011;35358;49.342;8.802;2022-08-25T05:46:07;7.10;;;4.75;;
49464;SDS011;35358;49.342;8.802;2022-08-25T05:48:35;5.60;;;5.03;;
49464;SDS011;35358;49.342;8.802;2022-08-25T05:51:05;6.85;;;5.63;;
49464;SDS011;35358;49.342;8.802;2022-08-25T05:56:05;5.43;;;4.75;;
49464;SDS011;35358;49.342;8.802;2022-08-25T05:58:31;4.78;;;4.32;;
49464;SDS011;35358;49.342;8.802;2022-08-25T06:00:59;6.50;;;4.70;;
49464;SDS011;35358;49.342;8.802;2022-08-25T06:03:43;5.07;;;4.57;;
49464;SDS011;35358;49.342;8.802;2022-08-25T06:06:10;5.70;;;5.03;;
49464;SDS011;35358;49.342;8.802;2022-08-25T06:08:36;5.55;;;4.97;;
49464;SDS011;35358;49.342;8.802;2022-08-25T06:11:04;9.60;;;5.80;;
49464;SDS011;35358;49.342;8.802;2022-08-25T06:13:31;10.13;;;5.50;;
49464;SDS011;35358;49.342;8.802;2022-08-25T06:15:57;13.30;;;5.53;;
49464;SDS011;35358;49.342;8.802;2022-08-25T06:18:23;6.00;;;5.40;;
49464;SDS011;35358;49.342;8.802;2022-08-25T06:20:51;6.95;;;5.75;;
49464;SDS011;35358;49.342;8.802;2022-08-25T06:23:17;6.93;;;5.25;;
49464;SDS011;35358;49.342;8.802;2022-08-25T06:25:52;10.48;;;5.50;;
49464;SDS011;35358;49.342;8.802;2022-08-25T06:28:20;6.93;;;6.22;;
49464;SDS011;35358;49.342;8.802;2022-08-25T06:30:46;6.55;;;5.60;;
49464;SDS011;35358;49.342;8.802;2022-08-25T06:33:12;13.82;;;6.03;;
49464;SDS011;35358;49.342;8.802;2022-08-25T06:35:42;8.82;;;6.05;;
49464;SDS011;35358;49.342;8.802;2022-08-25T06:40:34;7.30;;;5.45;;
49464;SDS011;35358;49.342;8.802;2022-08-25T06:42:59;9.38;;;6.15;;
49464;SDS011;35358;49.342;8.802;2022-08-25T06:45:25;6.80;;;6.10;;
49464;SDS011;35358;49.342;8.802;2022-08-25T06:47:51;6.70;;;6.10;;
49464;SDS011;35358;49.342;8.802;2022-08-25T06:50:16;9.35;;;7.18;;
49464;SDS011;35358;49.342;8.802;2022-08-25T06:52:46;6.60;;;5.93;;
49464;SDS011;35358;49.342;8.802;2022-08-25T06:55:15;9.18;;;6.38;;
49464;SDS011;35358;49.342;8.802;2022-08-25T06:57:41;10.90;;;6.53;;
49464;SDS011;35358;49.342;8.802;2022-08-25T07:00:07;7.15;;;6.45;;
49464;SDS011;35358;49.342;8.802;2022-08-25T07:02:35;20.05;;;6.93;;
49464;SDS011;35358;49.342;8.802;2022-08-25T07:05:02;21.48;;;6.68;;
49464;SDS011;35358;49.342;8.802;2022-08-25T07:07:28;24.20;;;7.00;;
49464;SDS011;35358;49.342;8.802;2022-08-25T07:09:54;9.68;;;6.70;;
49464;SDS011;35358;49.342;8.802;2022-08-25T07:12:22;22.80;;;7.82;;
49464;SDS011;35358;49.342;8.802;2022-08-25T07:14:52;7.43;;;6.00;;
49464;SDS011;35358;49.342;8.802;2022-08-25T07:17:18;7.78;;;5.82;;
49464;SDS011;35358;49.342;8.802;2022-08-25T07:19:47;7.05;;;6.35;;
49464;SDS011;35358;49.342;8.802;2022-08-25T07:22:13;8.80;;;6.45;;
49464;SDS011;35358;49.342;8.802;2022-08-25T07:24:41;11.75;;;7.07;;
49464;SDS011;35358;49.342;8.802;2022-08-25T07:27:08;10.90;;;6.38;;
49464;SDS011;35358;49.342;8.802;2022-08-25T07:29:34;8.70;;;6.75;;
49464;SDS011;35358;49.342;8.802;2022-08-25T07:32:03;9.45;;;7.15;;
49464;SDS011;35358;49.342;8.802;2022-08-25T07:34:29;7.68;;;6.50;;
49464;SDS011;35358;49.342;8.802;2022-08-25T07:37:15;7.85;;;6.47;;
49464;SDS011;35358;49.342;8.802;2022-08-25T07:39:44;7.33;;;6.17;;
49464;SDS011;35358;49.342;8.802;2022-08-25T07:42:12;6.93;;;6.22;;
49464;SDS011;35358;49.342;8.802;2022-08-25T07:44:40;6.97;;;6.28;;
49464;SDS011;35358;49.342;8.802;2022-08-25T07:47:08;7.78;;;5.82;;
49464;SDS011;35358;49.342;8.802;2022-08-25T07:49:33;6.88;;;6.18;;
49464;SDS011;35358;49.342;8.802;2022-08-25T07:52:01;6.70;;;5.97;;
49464;SDS011;35358;49.342;8.802;2022-08-25T07:54:27;7.10;;;6.30;;
49464;SDS011;35358;49.342;8.802;2022-08-25T07:56:53;8.27;;;6.95;;
49464;SDS011;35358;49.342;8.802;2022-08-25T07:59:18;7.57;;;6.25;;
49464;SDS011;35358;49.342;8.802;2022-08-25T08:01:44;7.70;;;5.78;;
49464;SDS011;35358;49.342;8.802;2022-08-25T08:04:10;6.28;;;5.68;;
49464;SDS011;35358;49.342;8.802;2022-08-25T08:06:37;7.47;;;6.28;;
49464;SDS011;35358;49.342;8.802;2022-08-25T08:09:06;6.90;;;5.97;;
49464;SDS011;35358;49.342;8.802;2022-08-25T08:11:33;8.05;;;6.00;;
49464;SDS011;35358;49.342;8.802;2022-08-25T08:14:01;8.70;;;6.38;;
49464;SDS011;35358;49.342;8.802;2022-08-25T08:16:28;7.75;;;6.65;;
49464;SDS011;35358;49.342;8.802;2022-08-25T08:18:55;7.20;;;6.05;;
49464;SDS011;35358;49.342;8.802;2022-08-25T08:21:27;10.32;;;6.65;;
49464;SDS011;35358;49.342;8.802;2022-08-25T08:23:55;8.82;;;6.05;;
49464;SDS011;35358;49.342;8.802;2022-08-25T08:26:22;6.53;;;5.80;;
49464;SDS011;35358;49.342;8.802;2022-08-25T08:28:50;9.65;;;6.07;;
49464;SDS011;35358;49.342;8.802;2022-08-25T08:31:20;8.70;;;6.37;;
49464;SDS011;35358;49.342;8.802;2022-08-25T08:33:47;8.02;;;5.25;;
49464;SDS011;35358;49.342;8.802;2022-08-25T08:36:15;8.80;;;5.68;;
49464;SDS011;35358;49.342;8.802;2022-08-25T08:38:42;6.75;;;5.57;;
49464;SDS011;35358;49.342;8.802;2022-08-25T08:46:43;8.45;;;5.72;;
49464;SDS011;35358;49.342;8.802;2022-08-25T08:52:43;7.38;;;4.72;;
49464;SDS011;35358;49.342;8.802;2022-08-25T08:57:51;9.55;;;4.95;;
49464;SDS011;35358;49.342;8.802;2022-08-25T09:00:21;9.82;;;5.55;;
49464;SDS011;35358;49.342;8.802;2022-08-25T09:02:57;15.43;;;6.10;;
49464;SDS011;35358;49.342;8.802;2022-08-25T09:05:48;4.68;;;4.00;;
49464;SDS011;35358;49.342;8.802;2022-08-25T09:08:17;9.52;;;3.60;;
49464;SDS011;35358;49.342;8.802;2022-08-25T09:10:56;5.38;;;4.10;;
49464;SDS011;35358;49.342;8.802;2022-08-25T09:16:30;8.13;;;4.30;;
49464;SDS011;35358;49.342;8.802;2022-08-25T09:22:30;5.53;;;4.38;;
49464;SDS011;35358;49.342;8.802;2022-08-25T09:30:52;5.55;;;4.95;;
49464;SDS011;35358;49.342;8.802;2022-08-25T09:33:19;6.60;;;4.30;;
49464;SDS011;35358;49.342;8.802;2022-08-25T09:35:46;5.38;;;3.88;;
49464;SDS011;35358;49.342;8.802;2022-08-25T09:38:13;5.63;;;4.43;;
49464;SDS011;35358;49.342;8.802;2022-08-25T09:40:40;4.55;;;4.13;;
49464;SDS011;35358;49.342;8.802;2022-08-25T09:43:51;6.18;;;4.53;;
49464;SDS011;35358;49.342;8.802;2022-08-25T09:46:14;6.10;;;4.50;;
49464;SDS011;35358;49.342;8.802;2022-08-25T09:51:28;5.82;;;4.47;;
49464;SDS011;35358;49.342;8.802;2022-08-25T09:54:02;6.15;;;4.00;;
49464;SDS011;35358;49.342;8.802;2022-08-25T09:56:53;5.43;;;4.22;;
49464;SDS011;35358;49.342;8.802;2022-08-25T10:01:57;5.82;;;4.38;;
49464;SDS011;35358;49.342;8.802;2022-08-25T10:04:29;4.15;;;3.60;;
49464;SDS011;35358;49.342;8.802;2022-08-25T10:06:58;6.13;;;4.00;;
49464;SDS011;35358;49.342;8.802;2022-08-25T10:14:50;6.53;;;4.28;;
49464;SDS011;35358;49.342;8.802;2022-08-25T10:17:17;10.43;;;3.97;;
49464;SDS011;35358;49.342;8.802;2022-08-25T10:20:22;4.00;;;3.60;;
49464;SDS011;35358;49.342;8.802;2022-08-25T10:22:45;4.50;;;4.07;;
49464;SDS011;35358;49.342;8.802;2022-08-25T10:25:13;6.63;;;4.05;;
49464;SDS011;35358;49.342;8.802;2022-08-25T10:33:33;4.28;;;3.85;;
49464;SDS011;35358;49.342;8.802;2022-08-25T10:38:48;4.70;;;4.20;;
49464;SDS011;35358;49.342;8.802;2022-08-25T10:44:18;6.25;;;4.40;;
49464;SDS011;35358;49.342;8.802;2022-08-25T10:49:53;4.88;;;4.03;;
49464;SDS011;35358;49.342;8.802;2022-08-25T10:52:24;5.90;;;4.10;;
49464;SDS011;35358;49.342;8.802;2022-08-25T11:00:40;4.95;;;4.45;;
49464;SDS011;35358;49.342;8.802;2022-08-25T11:05:58;6.15;;;3.80;;
49464;SDS011;35358;49.342;8.802;2022-08-25T11:08:37;4.28;;;3.88;;
49464;SDS011;35358;49.342;8.802;2022-08-25T11:11:25;6.53;;;4.18;;
49464;SDS011;35358;49.342;8.802;2022-08-25T11:13:59;4.45;;;4.00;;
49464;SDS011;35358;49.342;8.802;2022-08-25T11:16:43;5.15;;;3.97;;
49464;SDS011;35358;49.342;8.802;2022-08-25T11:19:37;6.15;;;3.70;;
49464;SDS011;35358;49.342;8.802;2022-08-25T11:27:59;5.18;;;3.90;;
49464;SDS011;35358;49.342;8.802;2022-08-25T11:30:30;4.90;;;4.00;;
49464;SDS011;35358;49.342;8.802;2022-08-25T11:33:02;4.20;;;3.60;;
49464;SDS011;35358;49.342;8.802;2022-08-25T11:51:33;7.97;;;4.63;;
49464;SDS011;35358;49.342;8.802;2022-08-25T11:54:11;4.43;;;4.00;;
49464;SDS011;35358;49.342;8.802;2022-08-25T11:56:40;5.82;;;4.10;;
49464;SDS011;35358;49.342;8.802;2022-08-25T11:59:07;3.90;;;3.60;;
49464;SDS011;35358;49.342;8.802;2022-08-25T12:09:30;6.07;;;3.83;;
49464;SDS011;35358;49.342;8.802;2022-08-25T12:21:27;5.05;;;3.90;;
49464;SDS011;35358;49.342;8.802;2022-08-25T12:24:03;3.78;;;3.38;;
49464;SDS011;35358;49.342;8.802;2022-08-25T12:26:40;6.47;;;3.60;;
49464;SDS011;35358;49.342;8.802;2022-08-25T12:29:15;3.58;;;3.03;;
49464;SDS011;35358;49.342;8.802;2022-08-25T12:37:30;6.03;;;3.25;;
49464;SDS011;35358;49.342;8.802;2022-08-25T12:40:03;3.58;;;3.28;;
49464;SDS011;35358;49.342;8.802;2022-08-25T12:47:41;3.55;;;3.22;;
49464;SDS011;35358;49.342;8.802;2022-08-25T12:55:51;4.15;;;3.40;;
49464;SDS011;35358;49.342;8.802;2022-08-25T12:58:49;3.53;;;2.92;;
49464;SDS011;35358;49.342;8.802;2022-08-25T13:01:43;5.47;;;3.15;;
49464;SDS011;35358;49.342;8.802;2022-08-25T13:10:41;3.55;;;3.08;;
49464;SDS011;35358;49.342;8.802;2022-08-25T13:16:08;4.50;;;3.13;;
49464;SDS011;35358;49.342;8.802;2022-08-25T13:18:44;3.33;;;3.03;;
49464;SDS011;35358;49.342;8.802;2022-08-25T13:23:44;4.68;;;3.50;;
49464;SDS011;35358;49.342;8.802;2022-08-25T13:26:16;5.60;;;3.20;;
49464;SDS011;35358;49.342;8.802;2022-08-25T13:29:11;6.88;;;3.13;;
49464;SDS011;35358;49.342;8.802;2022-08-25T13:34:50;3.55;;;2.47;;
49464;SDS011;35358;49.342;8.802;2022-08-25T13:37:35;3.60;;;2.63;;
49464;SDS011;35358;49.342;8.802;2022-08-25T13:40:08;4.35;;;2.60;;
49464;SDS011;35358;49.342;8.802;2022-08-25T13:42:47;3.08;;;2.60;;
49464;SDS011;35358;49.342;8.802;2022-08-25T13:45:16;5.80;;;3.05;;
49464;SDS011;35358;49.342;8.802;2022-08-25T13:47:48;4.88;;;2.60;;
49464;SDS011;35358;49.342;8.802;2022-08-25T13:52:52;4.15;;;2.95;;
49464;SDS011;35358;49.342;8.802;2022-08-25T13:55:23;6.47;;;2.70;;
49464;SDS011;35358;49.342;8.802;2022-08-25T13:57:56;6.68;;;2.50;;
49464;SDS011;35358;49.342;8.802;2022-08-25T14:00:27;5.70;;;3.10;;
49464;SDS011;35358;49.342;8.802;2022-08-25T14:02:55;3.40;;;2.92;;
49464;SDS011;35358;49.342;8.802;2022-08-25T14:08:05;3.08;;;2.78;;
49464;SDS011;35358;49.342;8.802;2022-08-25T14:10:48;4.07;;;2.85;;
49464;SDS011;35358;49.342;8.802;2022-08-25T14:14:02;3.47;;;2.50;;
49464;SDS011;35358;49.342;8.802;2022-08-25T14:16:35;3.85;;;2.45;;
49464;SDS011;35358;49.342;8.802;2022-08-25T14:19:16;3.92;;;3.00;;
49464;SDS011;35358;49.342;8.802;2022-08-25T14:21:47;3.72;;;2.60;;
49464;SDS011;35358;49.342;8.802;2022-08-25T14:24:15;3.17;;;2.50;;
49464;SDS011;35358;49.342;8.802;2022-08-25T14:26:44;6.20;;;2.83;;
49464;SDS011;35358;49.342;8.802;2022-08-25T14:29:11;4.40;;;3.15;;
49464;SDS011;35358;49.342;8.802;2022-08-25T14:31:38;4.22;;;2.28;;
49464;SDS011;35358;49.342;8.802;2022-08-25T14:34:22;6.40;;;2.70;;
49464;SDS011;35358;49.342;8.802;2022-08-25T14:36:50;4.28;;;2.50;;
49464;SDS011;35358;49.342;8.802;2022-08-25T14:39:16;2.80;;;2.60;;
49464;SDS011;35358;49.342;8.802;2022-08-25T14:41:43;4.75;;;2.47;;
49464;SDS011;35358;49.342;8.802;2022-08-25T14:46:50;2.70;;;2.50;;
49464;SDS011;35358;49.342;8.802;2022-08-25T14:49:23;3.22;;;2.80;;
49464;SDS011;35358;49.342;8.802;2022-08-25T14:51:56;4.50;;;2.80;;
49464;SDS011;35358;49.342;8.802;2022-08-25T14:54:24;3.55;;;2.78;;
49464;SDS011;35358;49.342;8.802;2022-08-25T14:56:53;2.80;;;2.60;;
49464;SDS011;35358;49.342;8.802;2022-08-25T14:59:20;6.38;;;2.50;;
49464;SDS011;35358;49.342;8.802;2022-08-25T15:01:46;4.72;;;2.38;;
49464;SDS011;35358;49.342;8.802;2022-08-25T15:04:13;2.70;;;2.50;;
49464;SDS011;35358;49.342;8.802;2022-08-25T15:06:44;3.45;;;2.22;;
49464;SDS011;35358;49.342;8.802;2022-08-25T15:09:11;12.73;;;3.30;;
49464;SDS011;35358;49.342;8.802;2022-08-25T15:11:47;3.00;;;2.30;;
49464;SDS011;35358;49.342;8.802;2022-08-25T15:14:17;4.85;;;2.28;;
49464;SDS011;35358;49.342;8.802;2022-08-25T15:16:49;4.28;;;2.40;;
49464;SDS011;35358;49.342;8.802;2022-08-25T15:19:18;5.38;;;2.35;;
49464;SDS011;35358;49.342;8.802;2022-08-25T15:21:48;5.45;;;2.88;;
49464;SDS011;35358;49.342;8.802;2022-08-25T15:24:20;4.65;;;2.60;;
49464;SDS011;35358;49.342;8.802;2022-08-25T15:26:53;3.33;;;2.33;;
49464;SDS011;35358;49.342;8.802;2022-08-25T15:29:25;2.13;;;1.92;;
49464;SDS011;35358;49.342;8.802;2022-08-25T15:31:53;2.80;;;2.40;;
49464;SDS011;35358;49.342;8.802;2022-08-25T15:34:19;4.07;;;2.20;;
49464;SDS011;35358;49.342;8.802;2022-08-25T15:36:45;2.63;;;1.92;;
49464;SDS011;35358;49.342;8.802;2022-08-25T15:39:13;5.20;;;2.25;;
49464;SDS011;35358;49.342;8.802;2022-08-25T15:41:42;2.28;;;2.08;;
49464;SDS011;35358;49.342;8.802;2022-08-25T15:44:12;1.83;;;1.73;;
49464;SDS011;35358;49.342;8.802;2022-08-25T15:46:40;4.85;;;2.28;;
49464;SDS011;35358;49.342;8.802;2022-08-25T15:49:06;4.07;;;2.47;;
49464;SDS011;35358;49.342;8.802;2022-08-25T15:51:34;2.65;;;2.20;;
49464;SDS011;35358;49.342;8.802;2022-08-25T15:53:59;2.78;;;1.92;;
49464;SDS011;35358;49.342;8.802;2022-08-25T15:56:25;4.28;;;1.88;;
49464;SDS011;35358;49.342;8.802;2022-08-25T15:58:55;3.25;;;2.95;;
49464;SDS011;35358;49.342;8.802;2022-08-25T16:01:25;2.90;;;2.60;;
49464;SDS011;35358;49.342;8.802;2022-08-25T16:03:52;8.68;;;2.17;;
49464;SDS011;35358;49.342;8.802;2022-08-25T16:06:18;7.25;;;2.65;;
49464;SDS011;35358;49.342;8.802;2022-08-25T16:08:44;7.45;;;2.72;;
49464;SDS011;35358;49.342;8.802;2022-08-25T16:11:16;10.35;;;2.85;;
49464;SDS011;35358;49.342;8.802;2022-08-25T16:13:46;7.50;;;2.45;;
49464;SDS011;35358;49.342;8.802;2022-08-25T16:16:15;5.13;;;2.17;;
49464;SDS011;35358;49.342;8.802;2022-08-25T16:18:44;4.07;;;2.33;;
49464;SDS011;35358;49.342;8.802;2022-08-25T16:23:37;5.10;;;2.42;;
49464;SDS011;35358;49.342;8.802;2022-08-25T16:26:04;5.35;;;2.20;;
49464;SDS011;35358;49.342;8.802;2022-08-25T16:28:35;3.05;;;2.30;;
49464;SDS011;35358;49.342;8.802;2022-08-25T16:31:02;4.97;;;2.22;;
49464;SDS011;35358;49.342;8.802;2022-08-25T16:33:32;3.15;;;2.47;;
49464;SDS011;35358;49.342;8.802;2022-08-25T16:36:05;3.35;;;2.33;;
49464;SDS011;35358;49.342;8.802;2022-08-25T16:38:38;2.42;;;1.95;;
49464;SDS011;35358;49.342;8.802;2022-08-25T16:41:10;2.75;;;2.42;;
49464;SDS011;35358;49.342;8.802;2022-08-25T16:43:38;4.88;;;2.30;;
49464;SDS011;35358;49.342;8.802;2022-08-25T16:46:10;7.70;;;2.35;;
49464;SDS011;35358;49.342;8.802;2022-08-25T16:48:37;5.18;;;2.53;;
49464;SDS011;35358;49.342;8.802;2022-08-25T16:51:07;4.25;;;3.03;;
49464;SDS011;35358;49.342;8.802;2022-08-25T16:53:36;4.22;;;2.63;;
49464;SDS011;35358;49.342;8.802;2022-08-25T16:56:25;2.78;;;2.53;;
49464;SDS011;35358;49.342;8.802;2022-08-25T16:58:55;2.63;;;2.25;;
49464;SDS011;35358;49.342;8.802;2022-08-25T17:01:22;3.03;;;2.80;;
49464;SDS011;35358;49.342;8.802;2022-08-25T17:03:53;3.88;;;2.65;;
49464;SDS011;35358;49.342;8.802;2022-08-25T17:06:21;3.13;;;2.38;;
49464;SDS011;35358;49.342;8.802;2022-08-25T17:08:48;3.80;;;2.47;;
49464;SDS011;35358;49.342;8.802;2022-08-25T17:13:41;3.22;;;2.28;;
49464;SDS011;35358;49.342;8.802;2022-08-25T17:16:09;2.78;;;2.45;;
49464;SDS011;35358;49.342;8.802;2022-08-25T17:18:35;4.50;;;2.40;;
49464;SDS011;35358;49.342;8.802;2022-08-25T17:21:02;4.82;;;2.50;;
49464;SDS011;35358;49.342;8.802;2022-08-25T17:25:59;3.38;;;2.55;;
49464;SDS011;35358;49.342;8.802;2022-08-25T17:28:28;2.63;;;2.30;;
49464;SDS011;35358;49.342;8.802;2022-08-25T17:30:53;2.80;;;2.40;;
49464;SDS011;35358;49.342;8.802;2022-08-25T17:33:22;3.90;;;2.30;;
49464;SDS011;35358;49.342;8.802;2022-08-25T17:35:50;4.22;;;2.63;;
49464;SDS011;35358;49.342;8.802;2022-08-25T17:38:18;5.22;;;2.75;;
49464;SDS011;35358;49.342;8.802;2022-08-25T17:40:49;4.50;;;2.67;;
49464;SDS011;35358;49.342;8.802;2022-08-25T17:43:17;3.63;;;2.73;;
49464;SDS011;35358;49.342;8.802;2022-08-25T17:45:48;3.17;;;2.50;;